Time;durP1;ratioP1;P1;durP2;ratioP2;P2;SDS_P1;SDS_P2;PMS_P1;PMS_P2;Temp;Humidity;BMP_temperature;BMP_pressure;BME280_temperature;BME280_humidity;BME280_pressure;Samples;Min_cycle;Max_cycle;Signal;HPM_P1;HPM_P2
2023/04/19 00:02:01;;;;;;;2.67;1.30;;;19.90;63.10;;;;;;5137461;22;20021;-62
2023/04/19 00:04:24;;;;;;;2.72;1.30;;;19.90;63.00;;;;;;5172413;23;20991;-60
2023/04/19 00:06:46;;;;;;;2.72;1.45;;;19.90;63.00;;;;;;5171516;23;20446;-62
2023/04/19 00:09:09;;;;;;;2.50;1.73;;;19.90;63.00;;;;;;5169969;23;20086;-60
2023/04/19 00:11:31;;;;;;;2.47;1.33;;;19.90;63.00;;;;;;5168928;23;20016;-60
2023/04/19 00:13:54;;;;;;;2.33;1.20;;;19.90;63.00;;;;;;5170211;23;20581;-62
2023/04/19 00:16:16;;;;;;;1.58;1.10;;;19.90;63.00;;;;;;5170210;23;20020;-60
2023/04/19 00:18:39;;;;;;;1.52;1.10;;;19.90;62.50;;;;;;5170892;23;20397;-61
2023/04/19 00:21:01;;;;;;;2.05;1.00;;;19.90;63.10;;;;;;5168621;23;20015;-62
2023/04/19 00:23:24;;;;;;;2.30;1.40;;;19.90;63.00;;;;;;5171038;23;20024;-61
2023/04/19 00:25:48;;;;;;;3.45;1.60;;;19.90;63.00;;;;;;5169982;23;20070;-63
2023/04/19 00:28:10;;;;;;;2.40;1.30;;;19.90;63.00;;;;;;5169711;23;20025;-60
2023/04/19 00:30:33;;;;;;;2.58;1.38;;;19.90;63.00;;;;;;5169877;23;20020;-61
2023/04/19 00:32:55;;;;;;;1.65;1.10;;;19.90;63.10;;;;;;5141265;22;20016;-61
2023/04/19 00:35:18;;;;;;;1.88;1.25;;;19.90;63.00;;;;;;5170600;23;20047;-61
2023/04/19 00:37:40;;;;;;;2.53;1.33;;;19.90;63.00;;;;;;5170673;23;20016;-61
2023/04/19 00:40:04;;;;;;;2.67;1.25;;;20.00;63.10;;;;;;5171103;23;20099;-60
2023/04/19 00:42:28;;;;;;;1.98;1.15;;;19.90;62.90;;;;;;5163082;23;20054;-61
2023/04/19 00:44:51;;;;;;;1.95;1.23;;;20.00;62.40;;;;;;5171815;23;20016;-60
2023/04/19 00:47:14;;;;;;;3.13;1.55;;;20.00;63.00;;;;;;5170820;23;20019;-60
2023/04/19 00:49:37;;;;;;;2.95;1.80;;;20.00;63.00;;;;;;5168927;23;20071;-62
2023/04/19 00:51:59;;;;;;;3.13;1.80;;;20.00;63.00;;;;;;5138000;23;20371;-60
2023/04/19 00:54:22;;;;;;;3.80;2.50;;;20.00;63.10;;;;;;5171083;23;21951;-62
2023/04/19 00:56:45;;;;;;;5.30;2.83;;;20.00;63.50;;;;;;5169507;23;20474;-61
2023/04/19 00:59:08;;;;;;;6.88;3.17;;;20.00;64.00;;;;;;5170855;23;20042;-61
2023/04/19 01:01:31;;;;;;;7.15;4.00;;;20.10;64.40;;;;;;5171084;23;20175;-61
2023/04/19 01:03:54;;;;;;;5.28;2.83;;;20.10;64.70;;;;;;5170404;22;20047;-62
2023/04/19 01:06:16;;;;;;;5.40;2.75;;;20.10;64.90;;;;;;5170605;23;20016;-62
2023/04/19 01:08:39;;;;;;;6.40;3.47;;;20.10;65.00;;;;;;5171757;23;20039;-61
2023/04/19 01:11:02;;;;;;;5.57;3.00;;;20.20;65.30;;;;;;5164156;22;20103;-62
2023/04/19 01:13:26;;;;;;;5.00;2.90;;;20.20;65.60;;;;;;5170783;23;20012;-63
2023/04/19 01:15:50;;;;;;;4.75;2.70;;;20.20;65.60;;;;;;5170655;23;20071;-61
2023/04/19 01:18:12;;;;;;;5.22;3.17;;;20.20;65.70;;;;;;5163423;22;20517;-62
2023/04/19 01:20:35;;;;;;;5.28;2.60;;;20.20;65.90;;;;;;5171049;23;20535;-60
2023/04/19 01:22:57;;;;;;;4.63;2.50;;;20.20;65.90;;;;;;5171513;23;20008;-61
2023/04/19 01:25:20;;;;;;;4.32;2.63;;;20.30;66.20;;;;;;5172268;23;20026;-60
2023/04/19 01:27:43;;;;;;;5.72;2.50;;;20.30;66.20;;;;;;5171026;23;20276;-61
2023/04/19 01:30:06;;;;;;;4.93;2.60;;;20.30;66.30;;;;;;5171434;23;20055;-61
2023/04/19 01:32:28;;;;;;;6.60;2.80;;;20.30;66.40;;;;;;5170755;23;20456;-61
2023/04/19 01:34:52;;;;;;;4.97;2.63;;;20.30;66.40;;;;;;5171125;23;20031;-60
2023/04/19 01:37:14;;;;;;;4.70;2.33;;;20.30;66.40;;;;;;5171248;23;20012;-61
2023/04/19 01:39:37;;;;;;;5.82;2.38;;;20.30;66.40;;;;;;5172355;23;20023;-61
2023/04/19 01:42:00;;;;;;;5.15;2.35;;;20.40;66.50;;;;;;5167418;23;20517;-61
2023/04/19 01:44:22;;;;;;;6.03;2.42;;;20.40;66.60;;;;;;5170931;23;20138;-60
2023/04/19 01:46:45;;;;;;;3.85;2.42;;;20.40;66.50;;;;;;5172070;23;20023;-61
2023/04/19 01:49:07;;;;;;;6.68;2.47;;;20.50;66.50;;;;;;5171132;23;20024;-59
2023/04/19 01:51:30;;;;;;;8.30;2.20;;;20.50;66.50;;;;;;5142997;22;20084;-59
2023/04/19 01:53:53;;;;;;;4.57;2.00;;;20.50;66.50;;;;;;5171326;23;20012;-60
2023/04/19 01:56:15;;;;;;;5.30;2.17;;;20.60;66.50;;;;;;5171043;23;20051;-63
2023/04/19 01:58:38;;;;;;;3.58;1.70;;;20.60;66.40;;;;;;5170898;23;20565;-62
2023/04/19 02:01:00;;;;;;;3.92;1.98;;;20.60;66.30;;;;;;5171302;23;20042;-61
2023/04/19 02:03:23;;;;;;;4.97;2.10;;;20.60;66.30;;;;;;5171413;22;20012;-62
2023/04/19 02:05:45;;;;;;;4.85;1.95;;;20.70;66.40;;;;;;5172415;23;20028;-60
2023/04/19 02:08:08;;;;;;;4.80;2.30;;;20.70;66.30;;;;;;5136602;23;20016;-60
2023/04/19 02:10:30;;;;;;;6.13;2.10;;;20.70;66.30;;;;;;5167581;23;20016;-60
2023/04/19 02:12:53;;;;;;;4.60;1.90;;;20.80;66.10;;;;;;5168941;23;20390;-60
2023/04/19 02:15:15;;;;;;;5.07;1.90;;;20.80;66.10;;;;;;5169475;23;20291;-60
2023/04/19 02:17:37;;;;;;;5.35;1.95;;;20.80;66.10;;;;;;5161356;22;20103;-60
2023/04/19 02:20:00;;;;;;;5.68;2.35;;;20.90;66.10;;;;;;5169082;23;20016;-60
2023/04/19 02:22:22;;;;;;;5.80;1.88;;;20.90;66.10;;;;;;5170821;23;20063;-60
2023/04/19 02:24:46;;;;;;;4.97;2.55;;;20.90;66.10;;;;;;5170328;23;20016;-59
2023/04/19 02:27:08;;;;;;;4.03;1.83;;;21.00;66.10;;;;;;5173374;23;20012;-61
2023/04/19 02:29:31;;;;;;;4.50;2.00;;;21.00;66.10;;;;;;5173541;23;20016;-61
2023/04/19 02:31:53;;;;;;;3.63;1.80;;;21.00;66.00;;;;;;5171955;23;20016;-61
2023/04/19 02:34:17;;;;;;;4.93;1.92;;;21.00;66.00;;;;;;5144644;22;20016;-61
2023/04/19 02:36:39;;;;;;;4.95;1.90;;;21.00;65.80;;;;;;5163384;23;20062;-60
2023/04/19 02:39:02;;;;;;;3.58;1.70;;;21.10;65.70;;;;;;5172861;23;20504;-60
2023/04/19 02:41:24;;;;;;;4.55;1.80;;;21.10;65.80;;;;;;5171908;23;20024;-60
2023/04/19 02:43:46;;;;;;;2.55;1.63;;;21.20;65.80;;;;;;5171268;23;20039;-59
2023/04/19 02:46:10;;;;;;;2.13;1.45;;;21.20;65.70;;;;;;5172872;23;20054;-59
2023/04/19 02:48:32;;;;;;;3.15;1.50;;;21.20;65.60;;;;;;5164379;22;20047;-60
2023/04/19 02:50:54;;;;;;;2.85;1.75;;;21.20;65.80;;;;;;5144180;22;20012;-58
2023/04/19 02:53:17;;;;;;;3.88;1.52;;;21.30;65.70;;;;;;5172929;23;20466;-59
2023/04/19 02:55:39;;;;;;;2.95;1.63;;;21.20;65.70;;;;;;5172645;23;20027;-59
2023/04/19 02:58:02;;;;;;;4.28;1.85;;;21.30;65.80;;;;;;5172119;23;20082;-61
2023/04/19 03:00:24;;;;;;;4.38;1.60;;;21.30;65.60;;;;;;5166719;22;20406;-59
2023/04/19 03:02:47;;;;;;;3.10;1.50;;;21.30;65.70;;;;;;5170744;22;20027;-59
2023/04/19 03:05:10;;;;;;;3.08;1.70;;;21.40;65.60;;;;;;5144699;22;20508;-59
2023/04/19 03:07:32;;;;;;;3.83;2.10;;;21.40;65.60;;;;;;5170829;23;20022;-59
2023/04/19 03:09:55;;;;;;;3.40;1.77;;;21.40;65.50;;;;;;5172403;23;20046;-59
2023/04/19 03:12:17;;;;;;;2.75;1.33;;;21.50;65.50;;;;;;5172617;23;20354;-59
2023/04/19 03:14:40;;;;;;;2.33;1.50;;;21.50;65.50;;;;;;5172584;23;20024;-59
2023/04/19 03:17:03;;;;;;;3.78;1.70;;;21.50;65.40;;;;;;5172163;23;20334;-59
2023/04/19 03:19:25;;;;;;;2.22;1.15;;;21.60;65.40;;;;;;5173250;23;20012;-59
2023/04/19 03:21:47;;;;;;;3.28;1.35;;;21.60;65.30;;;;;;5172854;23;20016;-59
2023/04/19 03:24:10;;;;;;;2.83;1.27;;;21.60;65.20;;;;;;5173208;23;20011;-59
2023/04/19 03:26:32;;;;;;;2.88;1.48;;;21.70;65.20;;;;;;5172698;23;20012;-56
2023/04/19 03:28:54;;;;;;;2.47;1.30;;;21.80;65.10;;;;;;5173010;23;20019;-56
2023/04/19 03:31:17;;;;;;;2.30;1.17;;;21.80;65.00;;;;;;5173323;23;20043;-57
2023/04/19 03:33:39;;;;;;;2.35;1.42;;;21.80;64.90;;;;;;5171510;23;20362;-57
2023/04/19 03:36:02;;;;;;;3.13;1.52;;;21.90;64.80;;;;;;5164909;22;20024;-56
2023/04/19 03:38:24;;;;;;;2.90;1.40;;;21.90;64.70;;;;;;5171778;23;20012;-58
2023/04/19 03:40:48;;;;;;;3.45;1.13;;;22.00;64.60;;;;;;5173615;23;20008;-57
2023/04/19 03:43:10;;;;;;;1.90;1.07;;;22.00;64.40;;;;;;5171169;23;20361;-56
2023/04/19 03:45:32;;;;;;;2.28;1.40;;;22.10;64.30;;;;;;5173043;23;20019;-56
2023/04/19 03:47:55;;;;;;;2.53;1.13;;;22.10;64.20;;;;;;5139088;23;20025;-58
2023/04/19 03:50:17;;;;;;;3.20;1.35;;;22.20;64.10;;;;;;5172694;23;20026;-59
2023/04/19 03:52:39;;;;;;;1.48;0.98;;;22.30;64.10;;;;;;5143954;22;20375;-59
2023/04/19 03:55:02;;;;;;;2.25;0.90;;;22.30;64.00;;;;;;5172853;23;20027;-60
2023/04/19 03:57:24;;;;;;;2.28;1.00;;;22.40;63.80;;;;;;5144086;22;20426;-59
2023/04/19 03:59:47;;;;;;;3.35;1.20;;;22.50;63.60;;;;;;5172241;23;20012;-59
2023/04/19 04:02:09;;;;;;;1.13;1.00;;;22.60;63.50;;;;;;5171942;22;20016;-59
2023/04/19 04:04:32;;;;;;;2.42;1.00;;;22.60;63.40;;;;;;5171651;23;20016;-59
2023/04/19 04:06:54;;;;;;;1.83;1.08;;;22.70;63.20;;;;;;5170594;23;20751;-59
2023/04/19 04:09:17;;;;;;;1.10;0.90;;;22.70;63.10;;;;;;5172317;23;20019;-58
2023/04/19 04:11:39;;;;;;;1.52;0.95;;;22.80;63.00;;;;;;5169224;23;20024;-57
2023/04/19 04:14:01;;;;;;;1.83;1.08;;;22.90;62.90;;;;;;5171191;23;20022;-59
2023/04/19 04:16:24;;;;;;;0.90;0.73;;;23.00;62.80;;;;;;5162574;22;20016;-59
2023/04/19 04:18:46;;;;;;;2.17;1.02;;;23.00;62.60;;;;;;5170961;23;20091;-59
2023/04/19 04:21:09;;;;;;;1.45;0.85;;;23.20;62.30;;;;;;5171106;23;20020;-59
2023/04/19 04:23:32;;;;;;;3.45;1.17;;;23.10;62.20;;;;;;5141976;22;20103;-59
2023/04/19 04:26:01;;;;;;;3.00;0.90;;;23.10;62.10;;;;;;5170911;23;20012;-59
2023/04/19 04:28:23;;;;;;;2.28;0.88;;;23.20;62.20;;;;;;5171138;23;20012;-59
2023/04/19 04:30:46;;;;;;;1.85;0.70;;;23.30;62.10;;;;;;5170264;23;20095;-59
2023/04/19 04:33:10;;;;;;;2.28;0.95;;;23.30;61.90;;;;;;5170012;23;20025;-58
2023/04/19 04:35:34;;;;;;;0.77;0.70;;;23.40;61.80;;;;;;5170736;23;20020;-59
2023/04/19 04:37:56;;;;;;;1.77;1.00;;;23.50;61.60;;;;;;5163439;22;20453;-59
2023/04/19 04:40:19;;;;;;;1.58;0.70;;;23.60;61.40;;;;;;5169635;23;20020;-59
2023/04/19 04:42:41;;;;;;;1.17;0.70;;;23.60;61.20;;;;;;5170925;23;20015;-59
2023/04/19 04:45:04;;;;;;;0.93;0.60;;;23.70;61.20;;;;;;5161075;23;20012;-59
2023/04/19 04:47:35;;;;;;;2.85;0.98;;;23.80;60.80;;;;;;5170152;23;20019;-58
2023/04/19 04:50:02;;;;;;;1.95;0.80;;;23.90;60.80;;;;;;5172255;23;20065;-60
2023/04/19 04:52:24;;;;;;;1.85;0.80;;;24.00;60.50;;;;;;5170489;23;20027;-60
2023/04/19 04:54:47;;;;;;;1.80;0.88;;;24.10;60.40;;;;;;5171427;23;20019;-60
2023/04/19 04:57:09;;;;;;;1.70;0.82;;;24.20;60.40;;;;;;5170017;23;20027;-59
2023/04/19 04:59:32;;;;;;;2.03;0.80;;;24.20;60.10;;;;;;5169642;23;20027;-58
2023/04/19 05:01:54;;;;;;;1.05;0.68;;;24.30;60.60;;;;;;5170975;23;20043;-58
2023/04/19 05:04:17;;;;;;;1.83;0.75;;;24.40;59.90;;;;;;5169417;23;20052;-58
2023/04/19 05:06:40;;;;;;;1.05;0.73;;;24.40;59.70;;;;;;5168963;23;20015;-59
2023/04/19 05:09:02;;;;;;;1.80;0.82;;;24.50;59.70;;;;;;5170783;23;20019;-59
2023/04/19 05:11:26;;;;;;;2.65;1.05;;;24.50;59.60;;;;;;5170889;23;20438;-59
2023/04/19 05:13:48;;;;;;;1.75;0.90;;;24.60;59.40;;;;;;5172147;23;20048;-60
2023/04/19 05:16:11;;;;;;;1.95;0.90;;;24.60;59.20;;;;;;5169199;23;20347;-58
2023/04/19 05:18:33;;;;;;;1.23;0.77;;;24.70;59.10;;;;;;5170369;23;20114;-58
2023/04/19 05:20:57;;;;;;;1.80;0.80;;;24.70;59.00;;;;;;5171375;23;20026;-59
2023/04/19 05:23:20;;;;;;;2.15;0.68;;;24.80;59.00;;;;;;5141641;22;20012;-55
2023/04/19 05:25:42;;;;;;;2.53;0.80;;;24.80;58.90;;;;;;5171707;23;20015;-60
2023/04/19 05:28:05;;;;;;;1.55;1.05;;;24.80;58.80;;;;;;5170055;23;20091;-59
2023/04/19 05:30:27;;;;;;;1.80;1.08;;;24.80;58.80;;;;;;5171536;23;20484;-59
2023/04/19 05:32:51;;;;;;;0.70;0.50;;;24.80;58.70;;;;;;5169992;23;20470;-60
2023/04/19 05:35:13;;;;;;;2.55;0.80;;;24.80;58.70;;;;;;5167170;23;20023;-62
2023/04/19 05:37:36;;;;;;;1.45;0.70;;;24.80;58.60;;;;;;5168962;23;20016;-60
2023/04/19 05:39:58;;;;;;;1.15;0.65;;;24.90;58.70;;;;;;5170479;23;20058;-60
2023/04/19 05:42:20;;;;;;;2.47;0.80;;;24.90;58.70;;;;;;5169352;23;20016;-60
2023/04/19 05:44:43;;;;;;;1.55;0.73;;;24.90;58.80;;;;;;5170251;23;20147;-62
2023/04/19 05:47:05;;;;;;;2.78;0.80;;;24.80;58.70;;;;;;5169605;23;20012;-59
2023/04/19 05:49:28;;;;;;;3.17;0.95;;;24.90;58.70;;;;;;5163147;22;20362;-59
2023/04/19 05:51:50;;;;;;;1.35;0.82;;;24.80;58.70;;;;;;5170102;23;20016;-59
2023/04/19 05:54:13;;;;;;;3.20;0.95;;;24.80;58.80;;;;;;5169978;23;20023;-60
2023/04/19 05:56:35;;;;;;;1.92;0.80;;;24.80;59.40;;;;;;5161157;22;20064;-60
2023/04/19 05:58:59;;;;;;;2.70;0.88;;;24.80;58.80;;;;;;5169496;23;20537;-59
2023/04/19 06:01:23;;;;;;;1.70;0.70;;;24.80;58.70;;;;;;5169387;23;20066;-59
2023/04/19 06:03:45;;;;;;;2.25;0.88;;;24.80;58.70;;;;;;5137964;23;20494;-60
2023/04/19 06:06:08;;;;;;;1.38;0.70;;;24.80;58.70;;;;;;5168432;23;20107;-59
2023/04/19 06:08:30;;;;;;;4.70;1.10;;;24.80;58.70;;;;;;5170035;23;20099;-59
2023/04/19 06:10:54;;;;;;;2.47;0.68;;;24.80;58.60;;;;;;5168030;23;20028;-59
2023/04/19 06:13:17;;;;;;;1.52;0.65;;;24.80;58.70;;;;;;5167496;23;20358;-59
2023/04/19 06:15:39;;;;;;;2.25;0.80;;;24.80;58.80;;;;;;5170447;23;20166;-60
2023/04/19 06:18:01;;;;;;;1.63;0.63;;;24.80;58.90;;;;;;5168986;23;20008;-59
2023/04/19 06:20:24;;;;;;;2.67;1.05;;;24.70;58.90;;;;;;5170356;23;20349;-60
2023/04/19 06:22:48;;;;;;;0.40;0.32;;;24.70;59.00;;;;;;5167459;23;20204;-60
2023/04/19 06:25:59;;;;;;;1.05;0.70;;;24.70;59.10;;;;;;5169240;23;20410;-60
2023/04/19 06:28:22;;;;;;;2.20;0.70;;;24.70;59.20;;;;;;5170202;23;20016;-59
2023/04/19 06:30:45;;;;;;;1.65;0.80;;;24.80;59.20;;;;;;5138232;23;20087;-58
2023/04/19 06:33:08;;;;;;;0.93;0.50;;;24.80;59.30;;;;;;5169914;23;20127;-60
2023/04/19 06:35:31;;;;;;;1.70;0.70;;;24.80;59.30;;;;;;5170712;23;20358;-59
2023/04/19 06:37:54;;;;;;;1.30;0.60;;;24.70;59.30;;;;;;5138700;22;20008;-59
2023/04/19 06:40:16;;;;;;;1.23;0.60;;;24.80;59.40;;;;;;5171105;23;20070;-59
2023/04/19 06:42:39;;;;;;;1.92;0.75;;;24.80;59.40;;;;;;5169398;23;20016;-59
2023/04/19 06:45:02;;;;;;;1.20;0.55;;;24.80;59.40;;;;;;5136950;23;20016;-60
2023/04/19 06:47:25;;;;;;;1.97;0.70;;;24.80;59.40;;;;;;5171098;23;20016;-60
2023/04/19 06:49:48;;;;;;;0.75;0.50;;;24.70;59.40;;;;;;5169208;23;20034;-59
2023/04/19 06:52:10;;;;;;;1.35;0.60;;;24.70;59.40;;;;;;5171198;23;20044;-59
2023/04/19 06:54:33;;;;;;;1.67;0.75;;;24.70;59.50;;;;;;5169990;23;20016;-59
2023/04/19 06:56:56;;;;;;;1.85;0.60;;;24.70;59.60;;;;;;5168155;23;20019;-60
2023/04/19 06:59:20;;;;;;;1.48;0.60;;;24.60;59.60;;;;;;5170143;23;20472;-61
2023/04/19 07:01:44;;;;;;;0.57;0.47;;;24.60;59.70;;;;;;5170424;23;20016;-60
2023/04/19 07:04:07;;;;;;;1.30;0.40;;;24.60;59.80;;;;;;5137084;23;20044;-59
2023/04/19 07:06:30;;;;;;;2.13;0.88;;;24.60;59.80;;;;;;5170506;23;20019;-60
2023/04/19 07:09:11;;;;;;;2.08;0.80;;;24.60;59.80;;;;;;5171445;23;20047;-61
2023/04/19 07:11:34;;;;;;;1.25;0.47;;;24.50;59.90;;;;;;5170491;23;20298;-60
2023/04/19 07:13:58;;;;;;;1.35;0.63;;;24.50;59.90;;;;;;5172858;23;20468;-61
2023/04/19 07:16:21;;;;;;;1.83;0.82;;;24.50;60.00;;;;;;5163409;23;20024;-60
2023/04/19 07:18:44;;;;;;;1.20;0.57;;;24.50;60.10;;;;;;5172042;23;20016;-59
2023/04/19 07:21:06;;;;;;;1.50;0.70;;;24.50;60.10;;;;;;5161653;23;20012;-61
2023/04/19 07:23:29;;;;;;;1.60;0.57;;;24.40;60.20;;;;;;5172537;23;20099;-61
2023/04/19 07:25:52;;;;;;;1.60;0.80;;;24.40;60.20;;;;;;5172587;23;20012;-59
2023/04/19 07:28:14;;;;;;;1.77;0.93;;;24.40;60.40;;;;;;5171576;23;20016;-58
2023/04/19 07:30:37;;;;;;;0.88;0.40;;;24.40;60.40;;;;;;5171904;23;20012;-58
2023/04/19 07:33:03;;;;;;;1.98;0.55;;;24.40;60.50;;;;;;5143401;22;20090;-59
2023/04/19 07:35:25;;;;;;;1.52;0.60;;;24.40;60.50;;;;;;5164723;22;20024;-59
2023/04/19 07:37:48;;;;;;;0.77;0.50;;;24.40;60.60;;;;;;5170933;23;20087;-60
2023/04/19 07:40:11;;;;;;;1.65;0.52;;;24.30;60.50;;;;;;5163640;22;20097;-60
2023/04/19 07:42:34;;;;;;;0.75;0.50;;;24.30;60.60;;;;;;5172131;23;20451;-60
2023/04/19 07:44:56;;;;;;;1.45;0.70;;;24.30;60.60;;;;;;5171919;23;20027;-59
2023/04/19 07:47:19;;;;;;;1.80;0.55;;;24.30;60.70;;;;;;5172175;23;20012;-59
2023/04/19 07:49:43;;;;;;;1.08;0.55;;;24.30;60.80;;;;;;5171694;23;20350;-60
2023/04/19 07:52:07;;;;;;;1.67;0.50;;;24.30;60.80;;;;;;5172587;23;20489;-60
2023/04/19 07:54:31;;;;;;;2.45;1.02;;;24.30;60.90;;;;;;5171505;23;20798;-60
2023/04/19 07:56:53;;;;;;;1.88;0.82;;;24.20;60.80;;;;;;5171151;23;20020;-60
2023/04/19 07:59:16;;;;;;;1.27;0.80;;;24.20;60.80;;;;;;5171444;23;20019;-60
2023/04/19 08:01:39;;;;;;;2.10;0.75;;;24.20;60.90;;;;;;5172245;23;20095;-59
2023/04/19 08:04:01;;;;;;;1.27;0.70;;;24.20;61.20;;;;;;5170398;23;20008;-59
2023/04/19 08:06:25;;;;;;;1.02;0.60;;;24.20;61.00;;;;;;5171964;23;20043;-60
2023/04/19 08:08:48;;;;;;;1.13;0.65;;;24.20;61.00;;;;;;5172620;23;20026;-58
2023/04/19 08:11:11;;;;;;;0.77;0.50;;;24.20;61.00;;;;;;5171831;23;20424;-59
2023/04/19 08:13:34;;;;;;;2.40;0.70;;;24.20;61.10;;;;;;5170946;23;20012;-59
2023/04/19 08:15:57;;;;;;;1.70;0.73;;;24.20;61.10;;;;;;5170902;23;20024;-59
2023/04/19 08:18:19;;;;;;;2.70;0.70;;;24.20;61.10;;;;;;5164237;22;20178;-59
2023/04/19 08:20:42;;;;;;;1.85;0.60;;;24.20;61.10;;;;;;5172609;23;20023;-59
2023/04/19 08:23:06;;;;;;;2.50;0.82;;;24.20;61.10;;;;;;5170733;23;20450;-59
2023/04/19 08:25:29;;;;;;;1.38;0.77;;;24.10;61.10;;;;;;5163510;23;20016;-59
2023/04/19 08:27:51;;;;;;;0.90;0.50;;;24.20;61.20;;;;;;5142957;22;20048;-59
2023/04/19 08:30:14;;;;;;;1.90;0.80;;;24.10;61.10;;;;;;5172552;23;20047;-59
2023/04/19 08:32:37;;;;;;;1.52;0.80;;;24.10;61.20;;;;;;5172541;23;20012;-59
2023/04/19 08:35:00;;;;;;;0.93;0.60;;;24.20;61.20;;;;;;5171735;23;20056;-59
2023/04/19 08:37:22;;;;;;;0.98;0.50;;;24.10;61.20;;;;;;5163397;23;20468;-59
2023/04/19 08:39:45;;;;;;;1.48;0.77;;;24.10;61.20;;;;;;5161623;23;20012;-59
2023/04/19 08:42:09;;;;;;;1.17;0.70;;;24.10;61.20;;;;;;5164108;22;20470;-60
2023/04/19 08:44:33;;;;;;;2.35;0.70;;;24.10;61.20;;;;;;5137682;23;20413;-60
2023/04/19 08:47:00;;;;;;;2.45;1.10;;;24.10;61.20;;;;;;5171537;23;20051;-60
2023/04/19 08:49:23;;;;;;;1.45;0.70;;;24.10;61.20;;;;;;5171508;23;20476;-60
2023/04/19 08:51:49;;;;;;;1.50;0.70;;;24.00;61.20;;;;;;5172502;23;20069;-60
2023/04/19 08:54:12;;;;;;;1.30;0.70;;;24.00;61.20;;;;;;5171208;23;20012;-60
2023/04/19 08:56:35;;;;;;;0.70;0.65;;;24.00;61.30;;;;;;5171099;23;20350;-60
2023/04/19 08:58:57;;;;;;;1.13;0.60;;;24.00;61.30;;;;;;5171419;23;20019;-60
2023/04/19 09:01:20;;;;;;;1.08;0.65;;;24.00;61.40;;;;;;5171484;23;20350;-61
2023/04/19 09:03:45;;;;;;;1.88;0.70;;;24.00;61.40;;;;;;5172485;22;20011;-61
2023/04/19 09:06:08;;;;;;;2.28;0.70;;;24.00;61.50;;;;;;5171748;23;20012;-60
2023/04/19 09:08:31;;;;;;;1.92;0.75;;;24.00;61.50;;;;;;5171325;23;20020;-60
2023/04/19 09:10:59;;;;;;;1.70;0.85;;;24.00;61.50;;;;;;5170671;23;20020;-60
2023/04/19 09:13:21;;;;;;;1.13;0.65;;;23.90;61.50;;;;;;5170984;23;20019;-60
2023/04/19 09:15:44;;;;;;;1.52;0.90;;;23.90;61.50;;;;;;5160350;23;20028;-60
2023/04/19 09:18:08;;;;;;;1.70;0.97;;;23.90;61.60;;;;;;5162764;22;20014;-60
2023/04/19 09:20:45;;;;;;;1.52;1.02;;;23.90;61.60;;;;;;5170179;23;20147;-60
2023/04/19 09:23:11;;;;;;;3.10;1.20;;;23.90;61.60;;;;;;5168157;23;20034;-60
2023/04/19 09:25:34;;;;;;;1.58;1.00;;;23.90;61.60;;;;;;5160138;23;20374;-60
2023/04/19 09:28:10;;;;;;;2.28;1.05;;;23.90;61.60;;;;;;5170022;23;20046;-60
2023/04/19 09:30:32;;;;;;;2.40;1.10;;;23.90;61.60;;;;;;5159472;23;20086;-60
2023/04/19 09:32:55;;;;;;;1.98;1.00;;;23.90;61.70;;;;;;5170132;23;20073;-60
2023/04/19 09:35:18;;;;;;;2.75;1.25;;;23.90;61.70;;;;;;5168587;23;20123;-60
2023/04/19 09:37:40;;;;;;;2.60;1.10;;;23.90;61.80;;;;;;5170427;23;20016;-59
2023/04/19 09:40:24;;;;;;;1.55;0.88;;;23.90;61.80;;;;;;5163449;22;20008;-60
2023/04/19 09:42:46;;;;;;;1.45;0.88;;;23.90;61.80;;;;;;5169959;23;20442;-59
2023/04/19 09:45:10;;;;;;;2.28;1.23;;;23.80;61.80;;;;;;5171005;23;20249;-59
2023/04/19 09:47:33;;;;;;;3.30;1.33;;;23.80;61.80;;;;;;5136383;23;20015;-59
2023/04/19 09:50:08;;;;;;;;;;;23.80;61.80;;;;;;5160043;22;20098;-59
2023/04/19 09:52:33;;;;;;;1.88;1.05;;;23.80;61.80;;;;;;5132516;23;19915;-59
2023/04/19 09:55:00;;;;;;;2.53;1.42;;;23.80;61.80;;;;;;5168688;23;20066;-59
2023/04/19 09:57:22;;;;;;;2.05;1.20;;;23.80;61.80;;;;;;5170281;23;20019;-59
2023/04/19 09:59:45;;;;;;;2.08;0.85;;;23.80;61.80;;;;;;5166935;23;20094;-60
2023/04/19 10:02:12;;;;;;;2.67;1.10;;;23.80;61.80;;;;;;5168888;22;20016;-60
2023/04/19 10:04:36;;;;;;;1.92;1.00;;;23.80;61.80;;;;;;5171093;23;20397;-60
2023/04/19 10:06:59;;;;;;;2.75;1.15;;;23.80;61.80;;;;;;5163174;22;20031;-59
2023/04/19 10:09:25;;;;;;;3.33;1.58;;;23.80;61.80;;;;;;5169780;23;20383;-59
2023/04/19 10:11:55;;;;;;;2.40;0.98;;;23.80;61.90;;;;;;5169775;23;20350;-59
2023/04/19 10:14:26;;;;;;;3.97;1.42;;;23.80;61.80;;;;;;5162874;22;20066;-59
2023/04/19 10:16:49;;;;;;;2.65;1.20;;;23.80;61.80;;;;;;5168861;23;20078;-59
2023/04/19 10:19:14;;;;;;;2.08;1.30;;;23.80;61.80;;;;;;5135743;23;20438;-59
2023/04/19 10:21:37;;;;;;;2.03;1.10;;;23.80;61.80;;;;;;5159109;23;20020;-59
2023/04/19 10:24:00;;;;;;;2.20;1.00;;;23.80;61.80;;;;;;5170312;23;20461;-59
2023/04/19 10:26:23;;;;;;;2.00;1.00;;;23.80;61.80;;;;;;5168407;23;20733;-59
2023/04/19 10:28:47;;;;;;;1.95;1.10;;;23.80;61.80;;;;;;5170575;23;20012;-59
2023/04/19 10:31:14;;;;;;;2.90;1.48;;;23.80;61.80;;;;;;5171066;23;20109;-59
2023/04/19 10:33:37;;;;;;;2.97;1.35;;;23.80;61.80;;;;;;5170836;23;20387;-59
2023/04/19 10:36:00;;;;;;;2.05;1.17;;;23.70;61.70;;;;;;5172472;23;20024;-59
2023/04/19 10:38:38;;;;;;;2.03;1.20;;;23.80;61.80;;;;;;5171289;23;20078;-59
2023/04/19 10:41:02;;;;;;;2.40;1.25;;;23.80;61.80;;;;;;5170396;23;20326;-59
2023/04/19 10:43:26;;;;;;;2.40;1.33;;;23.80;61.80;;;;;;5164073;22;20375;-59
2023/04/19 10:45:49;;;;;;;3.08;1.13;;;23.80;61.80;;;;;;5170000;23;20015;-60
2023/04/19 10:48:32;;;;;;;1.38;1.08;;;23.70;61.80;;;;;;5140078;22;20083;-59
2023/04/19 10:51:02;;;;;;;1.90;1.15;;;23.70;61.80;;;;;;5156352;22;20028;-59
2023/04/19 10:53:44;;;;;;;3.22;1.23;;;23.70;61.80;;;;;;5162818;23;20481;-59
2023/04/19 10:56:07;;;;;;;2.08;1.15;;;23.70;61.80;;;;;;5162961;23;20103;-59
2023/04/19 10:58:30;;;;;;;2.67;1.33;;;23.70;61.80;;;;;;5135503;22;20571;-59
2023/04/19 11:01:44;;;;;;;2.28;0.95;;;23.70;61.80;;;;;;5162997;23;20055;-60
2023/04/19 11:04:08;;;;;;;2.95;1.10;;;23.70;61.80;;;;;;5113960;23;20466;-59
2023/04/19 11:06:32;;;;;;;2.10;1.17;;;23.70;61.90;;;;;;5164268;23;20024;-60
2023/04/19 11:08:54;;;;;;;1.48;1.10;;;23.70;61.80;;;;;;5165472;23;20043;-59
2023/04/19 11:11:17;;;;;;;2.80;1.10;;;23.70;62.30;;;;;;5163628;23;20501;-59
2023/04/19 11:13:42;;;;;;;3.75;1.13;;;23.70;61.80;;;;;;5164623;23;20504;-59
2023/04/19 11:16:11;;;;;;;1.88;1.30;;;23.70;61.80;;;;;;5157422;22;20034;-59
2023/04/19 11:18:33;;;;;;;2.65;1.08;;;23.70;61.90;;;;;;5155034;22;20019;-59
2023/04/19 11:20:57;;;;;;;2.35;1.33;;;23.60;61.90;;;;;;5164320;23;20038;-59
2023/04/19 11:23:19;;;;;;;2.35;1.13;;;23.60;61.90;;;;;;5162688;23;20339;-60
2023/04/19 11:25:46;;;;;;;2.10;1.20;;;23.60;61.80;;;;;;5164869;23;20020;-60
2023/04/19 11:28:09;;;;;;;2.63;1.40;;;23.60;61.90;;;;;;5154791;22;20827;-60
2023/04/19 11:30:32;;;;;;;2.35;1.08;;;23.60;61.90;;;;;;5165843;23;20016;-60
2023/04/19 11:32:56;;;;;;;3.35;1.48;;;23.60;61.90;;;;;;5152822;23;20012;-60
2023/04/19 11:35:21;;;;;;;2.38;1.38;;;23.60;61.90;;;;;;5165221;23;20028;-60
2023/04/19 11:37:45;;;;;;;2.80;1.20;;;23.60;62.00;;;;;;5164101;23;20008;-60
2023/04/19 11:40:08;;;;;;;2.58;1.30;;;23.60;62.00;;;;;;5164714;23;20031;-61
2023/04/19 11:42:31;;;;;;;2.95;1.48;;;23.60;62.00;;;;;;5163370;23;20016;-60
2023/04/19 11:44:56;;;;;;;1.98;0.90;;;23.50;61.90;;;;;;5162822;23;20095;-61
2023/04/19 11:47:19;;;;;;;1.85;1.10;;;23.60;62.10;;;;;;5163810;23;20016;-60
2023/04/19 11:49:42;;;;;;;2.80;1.48;;;23.60;62.10;;;;;;5157012;22;20350;-60
2023/04/19 11:52:06;;;;;;;3.28;1.70;;;23.60;62.10;;;;;;5165079;23;20076;-60
2023/04/19 11:54:29;;;;;;;2.88;1.48;;;23.50;62.00;;;;;;5164700;23;20059;-61
2023/04/19 11:56:59;;;;;;;2.88;1.38;;;23.50;62.00;;;;;;5135344;22;20024;-60
2023/04/19 11:59:22;;;;;;;1.75;1.20;;;23.50;62.10;;;;;;5162032;23;20198;-59
2023/04/19 12:01:44;;;;;;;2.70;1.55;;;23.50;62.10;;;;;;5164578;23;20008;-61
2023/04/19 12:04:08;;;;;;;7.38;1.83;;;23.50;62.10;;;;;;5165017;23;20403;-61
2023/04/19 12:06:30;;;;;;;;;;;23.50;63.00;;;;;;5164633;23;20541;-69
2023/04/19 12:08:55;;;;;;;3.95;1.67;;;23.50;63.50;;;;;;5164048;23;19907;-60
2023/04/19 12:11:21;;;;;;;7.18;1.50;;;23.50;63.90;;;;;;5162942;23;20551;-62
2023/04/19 12:13:45;;;;;;;5.57;2.05;;;23.50;64.00;;;;;;5153944;23;20454;-62
2023/04/19 12:16:08;;;;;;;3.28;1.42;;;23.60;64.20;;;;;;5135424;22;20025;-64
2023/04/19 12:18:50;;;;;;;3.38;1.40;;;23.60;64.20;;;;;;5162235;23;20016;-63
2023/04/19 12:21:25;;;;;;;4.60;1.30;;;23.60;64.30;;;;;;5162325;23;20027;-69
2023/04/19 12:23:48;;;;;;;7.65;1.77;;;23.60;64.40;;;;;;5164185;23;20074;-61
2023/04/19 12:26:11;;;;;;;5.25;1.58;;;23.60;64.40;;;;;;5163591;23;20019;-61
2023/04/19 12:28:34;;;;;;;2.78;1.65;;;23.60;64.10;;;;;;5151627;23;20016;-62
2023/04/19 12:30:56;;;;;;;6.80;2.30;;;23.60;63.70;;;;;;5135248;22;20028;-63